createdAt,value
2019-03-18T00:01:32.399Z,98111.85
2019-03-18T00:04:06.637Z,98099.72
2019-03-18T00:06:42.195Z,98101.85
2019-03-18T00:09:16.564Z,98100.22
2019-03-18T00:11:50.572Z,98096.92
2019-03-18T00:14:24.120Z,98100.55
2019-03-18T00:16:57.795Z,98103.75
2019-03-18T00:19:31.506Z,98094.34
2019-03-18T00:22:05.408Z,98097.01
2019-03-18T00:24:38.812Z,98099.59
2019-03-18T00:27:12.534Z,98096.68
2019-03-18T00:29:46.276Z,98103.36
2019-03-18T00:32:20.648Z,98083.80
2019-03-18T00:34:54.562Z,98093.16
2019-03-18T00:37:28.334Z,98109.16
2019-03-18T00:40:02.150Z,98082.61
2019-03-18T00:42:37.372Z,98081.38
2019-03-18T00:45:15.112Z,98095.25
2019-03-18T00:47:46.828Z,98094.52
2019-03-18T00:50:20.740Z,98076.96
2019-03-18T00:52:54.832Z,98079.53
2019-03-18T00:55:28.796Z,98096.61
2019-03-18T00:58:05.607Z,98090.39
2019-03-18T01:00:39.268Z,98090.05
2019-03-18T01:03:12.780Z,98093.45
2019-03-18T01:05:47.343Z,98092.33
2019-03-18T01:08:21.077Z,98087.78
2019-03-18T01:10:54.788Z,98097.92
2019-03-18T01:13:28.640Z,98094.30
2019-03-18T01:16:02.390Z,98112.42
2019-03-18T01:18:36.038Z,98119.36
2019-03-18T01:21:10.387Z,98119.36
2019-03-18T01:23:44.260Z,98099.62
2019-03-18T01:26:18.009Z,98099.62
2019-03-18T01:28:52.849Z,98112.40
2019-03-18T01:31:26.493Z,98096.74
2019-03-18T01:34:00.334Z,98110.16
2019-03-18T01:36:34.607Z,98102.56
2019-03-18T01:39:08.768Z,98094.13
2019-03-18T01:41:42.412Z,98095.59
2019-03-18T01:44:15.981Z,98101.92
2019-03-18T01:46:49.724Z,98100.05
2019-03-18T01:49:23.420Z,98099.05
2019-03-18T01:51:57.257Z,98134.53
2019-03-18T01:54:32.296Z,98091.95
2019-03-18T01:57:06.357Z,98101.18
2019-03-18T01:59:41.725Z,98111.45
2019-03-18T02:02:15.400Z,98096.17
2019-03-18T02:04:49.078Z,98102.25
2019-03-18T02:07:22.663Z,98122.74
2019-03-18T02:09:57.797Z,98108.63
2019-03-18T02:12:31.439Z,98113.10
2019-03-18T02:15:08.377Z,98107.39
2019-03-18T02:17:42.110Z,98115.95
2019-03-18T02:20:19.707Z,98099.45
2019-03-18T02:22:54.429Z,98098.64
2019-03-18T02:25:28.564Z,98112.52
2019-03-18T02:28:02.675Z,98110.73
2019-03-18T02:30:38.414Z,98100.16
2019-03-18T02:33:12.197Z,98090.20
2019-03-18T02:35:45.441Z,98086.48
2019-03-18T02:38:19.455Z,98089.08
2019-03-18T02:40:55.843Z,98085.11
2019-03-18T02:43:29.677Z,98091.37
2019-03-18T02:46:10.067Z,98084.88
2019-03-18T02:48:39.947Z,98095.02
2019-03-18T02:51:13.852Z,98097.55
2019-03-18T02:53:48.732Z,98070.50
2019-03-18T02:56:23.627Z,98073.72
2019-03-18T02:58:57.122Z,98093.64
2019-03-18T03:01:30.739Z,98095.59
2019-03-18T03:04:04.853Z,98091.70
2019-03-18T03:06:38.405Z,98075.83
2019-03-18T03:09:12.852Z,98082.08
2019-03-18T03:11:46.892Z,98092.52
2019-03-18T03:14:22.362Z,98087.91
2019-03-18T03:16:55.699Z,98087.91
2019-03-18T03:19:29.351Z,98080.47
2019-03-18T03:22:02.610Z,98091.71
2019-03-18T03:24:37.956Z,98079.37
2019-03-18T03:27:11.723Z,98081.53
2019-03-18T03:29:45.329Z,98079.38
2019-03-18T03:32:19.014Z,98078.99
2019-03-18T03:34:53.690Z,98083.66
2019-03-18T03:37:28.377Z,98091.23
2019-03-18T03:40:02.762Z,98077.88
2019-03-18T03:42:37.304Z,98095.85
2019-03-18T03:45:15.774Z,98088.77
2019-03-18T03:47:49.358Z,98083.20
2019-03-18T03:50:23.366Z,98087.34
2019-03-18T03:52:57.488Z,98079.97
2019-03-18T03:55:31.371Z,98093.36
2019-03-18T03:58:05.163Z,98085.52
2019-03-18T04:00:39.119Z,98076.75
2019-03-18T04:03:13.218Z,98081.73
2019-03-18T04:05:47.314Z,98079.13
2019-03-18T04:08:21.262Z,98076.27
2019-03-18T04:10:54.613Z,98064.77
2019-03-18T04:13:28.592Z,98070.28
2019-03-18T04:16:02.669Z,98069.66
2019-03-18T04:18:36.183Z,98076.64
2019-03-18T04:21:09.872Z,98069.43
2019-03-18T04:23:43.464Z,98065.25
2019-03-18T04:26:17.121Z,98059.90
2019-03-18T04:28:52.285Z,98068.19
2019-03-18T04:31:25.785Z,98060.64
2019-03-18T04:33:59.240Z,98056.83
2019-03-18T04:36:33.062Z,98064.83
2019-03-18T04:39:07.529Z,98064.17
2019-03-18T04:41:41.281Z,98060.81
2019-03-18T04:44:17.727Z,98057.95
2019-03-18T04:46:51.558Z,98053.23
2019-03-18T04:49:25.912Z,98056.89
2019-03-18T04:51:59.589Z,98053.70
2019-03-18T04:54:34.849Z,98053.28
2019-03-18T04:57:08.609Z,98047.69
2019-03-18T04:59:43.558Z,98055.26
2019-03-18T05:02:19.112Z,98053.59
2019-03-18T05:04:53.528Z,98058.02
2019-03-18T05:07:27.035Z,98046.55
2019-03-18T05:10:02.294Z,98054.52
2019-03-18T05:12:36.905Z,98052.01
2019-03-18T05:15:11.717Z,98051.77
2019-03-18T05:17:45.974Z,98042.76
2019-03-18T05:20:22.391Z,98045.45
2019-03-18T05:22:54.558Z,98043.84
2019-03-18T05:25:30.114Z,98040.34
2019-03-18T05:28:03.980Z,98039.11
2019-03-18T05:30:39.137Z,98066.45
2019-03-18T05:33:12.866Z,98050.18
2019-03-18T05:35:46.386Z,98048.02
2019-03-18T05:38:20.079Z,98039.30
2019-03-18T05:40:55.449Z,98041.36
2019-03-18T05:43:30.628Z,98040.05
2019-03-18T05:46:04.828Z,98045.53
2019-03-18T05:48:40.262Z,98043.98
2019-03-18T05:51:13.859Z,98044.65
2019-03-18T05:53:49.220Z,98042.19
2019-03-18T05:56:22.699Z,98030.67
2019-03-18T05:58:57.404Z,98032.89
2019-03-18T06:01:31.483Z,98026.75
2019-03-18T06:04:05.567Z,98019.14
2019-03-18T06:06:40.806Z,98019.53
2019-03-18T06:09:14.583Z,98024.11
2019-03-18T06:11:51.205Z,98021.33
2019-03-18T06:14:24.267Z,98019.95
2019-03-18T06:16:58.322Z,98019.00
2019-03-18T06:19:32.364Z,98024.00
2019-03-18T06:22:05.880Z,98015.77
2019-03-18T06:24:39.641Z,98019.22
2019-03-18T06:27:13.157Z,98028.71
2019-03-18T06:29:46.826Z,98027.16
2019-03-18T06:32:22.399Z,98026.09
2019-03-18T06:34:55.357Z,98024.31
2019-03-18T06:37:29.392Z,98029.75
2019-03-18T06:40:02.986Z,98027.83
2019-03-18T06:42:36.848Z,98019.05
2019-03-18T06:45:12.559Z,98033.40
2019-03-18T06:47:46.379Z,98028.72
2019-03-18T06:50:21.381Z,98033.61
2019-03-18T06:52:55.076Z,98022.39
2019-03-18T06:55:29.042Z,98022.72
2019-03-18T06:58:03.219Z,98027.62
2019-03-18T07:00:37.243Z,98035.46
2019-03-18T07:03:12.476Z,98031.78
2019-03-18T07:05:46.359Z,98020.42
2019-03-18T07:08:20.153Z,98019.41
2019-03-18T07:10:53.783Z,98018.60
2019-03-18T07:13:28.945Z,98016.55
2019-03-18T07:16:02.928Z,98016.72
2019-03-18T07:18:36.539Z,98016.28
2019-03-18T07:21:14.474Z,98017.39
2019-03-18T07:23:46.459Z,98020.02
2019-03-18T07:26:20.621Z,98021.30
2019-03-18T07:28:54.405Z,98016.50
2019-03-18T07:31:29.568Z,98014.37
2019-03-18T07:34:03.897Z,98008.56
2019-03-18T07:36:39.028Z,98017.94
2019-03-18T07:39:12.883Z,98019.11
2019-03-18T07:41:48.411Z,98019.11
2019-03-18T07:44:22.990Z,98012.05
2019-03-18T07:46:57.347Z,98020.48
2019-03-18T07:49:31.493Z,98015.42
2019-03-18T07:52:06.072Z,98007.02
2019-03-18T07:54:39.369Z,98008.26
2019-03-18T07:57:12.892Z,98005.22
2019-03-18T07:59:48.584Z,98001.95
2019-03-18T08:02:23.949Z,97994.83
2019-03-18T08:04:59.318Z,98000.22
2019-03-18T08:07:32.999Z,98002.30
2019-03-18T08:10:09.225Z,97996.13
2019-03-18T08:12:43.228Z,97994.11
2019-03-18T08:15:18.266Z,97998.33
2019-03-18T08:17:51.993Z,97998.73
2019-03-18T08:20:25.507Z,97989.39
2019-03-18T08:23:04.235Z,97994.02
2019-03-18T08:25:38.040Z,97985.80
2019-03-18T08:28:11.754Z,97987.40
2019-03-18T08:30:45.715Z,97986.69
2019-03-18T08:33:19.543Z,97988.92
2019-03-18T08:35:53.028Z,97990.25
2019-03-18T08:38:26.631Z,97981.80
2019-03-18T08:41:00.665Z,97987.55
2019-03-18T08:43:35.674Z,97983.56
2019-03-18T08:46:09.649Z,97982.98
2019-03-18T08:48:55.149Z,97985.02
2019-03-18T08:51:18.232Z,97987.08
2019-03-18T08:53:52.394Z,97979.92
2019-03-18T08:56:29.687Z,97977.39
2019-03-18T08:59:02.797Z,97981.95
2019-03-18T09:01:41.132Z,97981.64
2019-03-18T09:04:16.908Z,97983.76
2019-03-18T09:06:51.422Z,97978.69
2019-03-18T09:09:29.214Z,97983.08
2019-03-18T09:12:02.659Z,97983.14
2019-03-18T09:14:41.707Z,97981.00
2019-03-18T09:17:22.702Z,97976.92
2019-03-18T09:19:54.086Z,97976.39
2019-03-18T09:22:27.997Z,97977.89
2019-03-18T09:25:02.746Z,97976.63
2019-03-18T09:27:37.016Z,97977.41
2019-03-18T09:30:24.654Z,97977.11
2019-03-18T09:32:58.971Z,97980.87
2019-03-18T09:35:32.918Z,97982.38
2019-03-18T09:38:06.982Z,97984.64
2019-03-18T09:40:48.683Z,97979.62
2019-03-18T09:43:23.639Z,97987.51
2019-03-18T09:45:57.435Z,97989.50
2019-03-18T09:48:33.272Z,97990.68
2019-03-18T09:51:09.504Z,97998.25
2019-03-18T09:53:43.120Z,98006.46
2019-03-18T09:56:21.238Z,98003.70
2019-03-18T09:58:56.514Z,98009.33
2019-03-18T10:01:37.011Z,98012.45
2019-03-18T10:04:11.104Z,98009.27
2019-03-18T10:06:48.748Z,98015.60
2019-03-18T10:09:24.570Z,98020.94
2019-03-18T10:11:59.186Z,98023.33
2019-03-18T10:14:33.046Z,98019.77
2019-03-18T10:17:10.040Z,98032.38
2019-03-18T10:19:42.443Z,98026.08
2019-03-18T10:22:16.707Z,98025.52
2019-03-18T10:24:52.734Z,98037.23
2019-03-18T10:27:28.991Z,98036.08
2019-03-18T10:30:05.397Z,98036.56
2019-03-18T10:32:40.607Z,98042.31
2019-03-18T10:35:17.524Z,98036.00
2019-03-18T10:37:54.362Z,98046.44
2019-03-18T10:40:28.960Z,98048.96
2019-03-18T10:43:03.687Z,98049.06
2019-03-18T10:45:39.800Z,98059.02
2019-03-18T10:48:15.343Z,98062.59
2019-03-18T10:50:50.487Z,98063.86
2019-03-18T10:53:25.084Z,98065.30
2019-03-18T10:56:07.680Z,98055.11
2019-03-18T10:58:35.507Z,98066.20
2019-03-18T11:01:13.531Z,98063.78
2019-03-18T11:03:47.786Z,98063.78
2019-03-18T11:06:21.921Z,98072.27
2019-03-18T11:08:57.091Z,98072.83
2019-03-18T11:11:31.439Z,98075.48
2019-03-18T11:14:13.309Z,98079.45
2019-03-18T11:16:52.171Z,98081.88
2019-03-18T11:19:24.961Z,98085.52
2019-03-18T11:22:01.607Z,98086.65
2019-03-18T11:24:37.320Z,98088.01
2019-03-18T11:27:11.480Z,98087.19
2019-03-18T11:29:45.973Z,98088.23
2019-03-18T11:32:22.032Z,98091.30
2019-03-18T11:35:00.463Z,98094.23
2019-03-18T11:37:35.529Z,98097.81
2019-03-18T11:40:15.719Z,98100.17
2019-03-18T11:42:53.259Z,98098.12
2019-03-18T11:45:28.655Z,98103.11
2019-03-18T11:48:06.066Z,98110.81
2019-03-18T11:50:43.663Z,98118.31
2019-03-18T11:53:18.907Z,98109.00
2019-03-18T11:55:54.292Z,98116.08
2019-03-18T11:58:29.808Z,98117.45
2019-03-18T12:01:05.410Z,98117.48
2019-03-18T12:03:43.300Z,98117.84
2019-03-18T12:06:24.793Z,98126.37
2019-03-18T12:09:02.327Z,98131.27
2019-03-18T12:11:37.666Z,98129.02
2019-03-18T12:14:14.544Z,98139.56
2019-03-18T12:16:56.101Z,98136.42
2019-03-18T12:19:30.764Z,98139.98
2019-03-18T12:22:05.746Z,98133.53
2019-03-18T12:24:40.929Z,98135.19
2019-03-18T12:27:16.410Z,98142.00
2019-03-18T12:29:58.820Z,98138.89
2019-03-18T12:32:33.607Z,98144.62
2019-03-18T12:35:09.691Z,98140.55
2019-03-18T12:37:50.800Z,98136.11
2019-03-18T12:40:31.769Z,98140.34
2019-03-18T12:43:08.143Z,98139.65
2019-03-18T12:45:43.424Z,98137.97
2019-03-18T12:48:20.696Z,98144.53
2019-03-18T12:50:56.785Z,98142.56
2019-03-18T12:53:46.813Z,98137.00
2019-03-18T12:56:22.599Z,98138.88
2019-03-18T12:58:57.856Z,98142.52
2019-03-18T13:01:33.475Z,98141.95
2019-03-18T13:04:09.031Z,98143.64
2019-03-18T13:06:47.987Z,98138.65
2019-03-18T13:09:24.067Z,98134.48
2019-03-18T13:12:06.411Z,98145.19
2019-03-18T13:14:41.211Z,98146.98
2019-03-18T13:17:15.845Z,98143.44
2019-03-18T13:19:51.566Z,98141.77
2019-03-18T13:22:26.612Z,98143.38
2019-03-18T13:25:01.250Z,98145.88
2019-03-18T13:27:37.491Z,98143.38
2019-03-18T13:30:15.545Z,98152.31
2019-03-18T13:32:50.678Z,98145.00
2019-03-18T13:35:26.186Z,98143.45
2019-03-18T13:38:05.513Z,98143.63
2019-03-18T13:40:40.397Z,98141.79
2019-03-18T13:43:15.157Z,98140.88
2019-03-18T13:45:55.271Z,98138.80
2019-03-18T13:48:24.501Z,98141.53
2019-03-18T13:51:00.443Z,98130.26
2019-03-18T13:53:35.392Z,98144.34
2019-03-18T13:56:08.840Z,98139.29
2019-03-18T13:58:42.949Z,98140.58
2019-03-18T14:01:16.621Z,98147.32
2019-03-18T14:03:51.302Z,98137.31
2019-03-18T14:06:25.385Z,98141.35
2019-03-18T14:08:59.795Z,98140.78
2019-03-18T14:11:37.166Z,98139.78
2019-03-18T14:14:09.185Z,98135.38
2019-03-18T14:16:45.724Z,98139.20
2019-03-18T14:19:20.023Z,98142.84
2019-03-18T14:22:01.683Z,98140.62
2019-03-18T14:24:35.692Z,98141.13
2019-03-18T14:27:09.059Z,98146.78
2019-03-18T14:29:43.100Z,98156.54
2019-03-18T14:32:17.344Z,98148.48
2019-03-18T14:34:51.253Z,98145.59
2019-03-18T14:37:25.209Z,98140.50
2019-03-18T14:39:58.840Z,98137.20
2019-03-18T14:42:32.586Z,98127.48
2019-03-18T14:45:07.549Z,98130.00
2019-03-18T14:47:42.972Z,98128.84
2019-03-18T14:50:20.064Z,98124.74
2019-03-18T14:52:53.957Z,98129.91
2019-03-18T14:55:27.814Z,98124.14
2019-03-18T14:58:03.206Z,98125.27
2019-03-18T15:00:37.041Z,98127.25
2019-03-18T15:03:10.586Z,98141.76
2019-03-18T15:05:44.403Z,98134.03
2019-03-18T15:08:17.838Z,98127.17
2019-03-18T15:10:51.387Z,98131.58
2019-03-18T15:13:30.749Z,98127.75
2019-03-18T15:16:01.123Z,98127.00
2019-03-18T15:18:34.589Z,98117.82
2019-03-18T15:21:10.601Z,98120.77
2019-03-18T15:23:44.071Z,98122.08
2019-03-18T15:26:19.352Z,98122.72
2019-03-18T15:28:53.199Z,98123.31
2019-03-18T15:31:27.069Z,98113.81
2019-03-18T15:34:00.749Z,98116.53
2019-03-18T15:36:34.706Z,98115.38
2019-03-18T15:39:10.999Z,98115.38
2019-03-18T15:41:44.789Z,98122.53
2019-03-18T15:44:18.036Z,98119.22
2019-03-18T15:46:51.859Z,98112.97
2019-03-18T15:49:27.345Z,98114.64
2019-03-18T15:52:10.483Z,98119.14
2019-03-18T15:54:36.061Z,98123.78
2019-03-18T15:57:09.778Z,98118.77
2019-03-18T15:59:43.491Z,98109.09
2019-03-18T16:02:17.315Z,98113.53
2019-03-18T16:04:51.166Z,98117.02
2019-03-18T16:07:25.072Z,98116.18
2019-03-18T16:09:58.666Z,98124.36
2019-03-18T16:12:32.614Z,98132.02
2019-03-18T16:15:07.073Z,98135.29
2019-03-18T16:17:41.800Z,98131.86
2019-03-18T16:20:27.121Z,98132.45
2019-03-18T16:23:01.408Z,98134.55
2019-03-18T16:25:36.471Z,98137.47
2019-03-18T16:28:10.222Z,98134.04
2019-03-18T16:30:43.472Z,98137.31
2019-03-18T16:33:17.121Z,98136.77
2019-03-18T16:35:51.320Z,98129.77
2019-03-18T16:38:26.184Z,98127.52
2019-03-18T16:41:00.360Z,98126.94
2019-03-18T16:43:35.576Z,98123.40
2019-03-18T16:46:08.873Z,98121.27
2019-03-18T16:48:50.945Z,98116.70
2019-03-18T16:51:22.982Z,98125.86
2019-03-18T16:53:56.715Z,98125.45
2019-03-18T16:56:30.446Z,98129.25
2019-03-18T16:59:05.536Z,98124.46
2019-03-18T17:01:39.228Z,98116.55
2019-03-18T17:04:13.158Z,98116.14
2019-03-18T17:06:46.856Z,98113.45
2019-03-18T17:09:20.489Z,98118.28
2019-03-18T17:11:54.891Z,98119.75
2019-03-18T17:14:28.394Z,98117.39
2019-03-18T17:17:03.279Z,98120.08
2019-03-18T17:19:37.137Z,98120.52
2019-03-18T17:22:13.302Z,98121.04
2019-03-18T17:24:49.051Z,98125.78
2019-03-18T17:27:22.925Z,98125.30
2019-03-18T17:29:56.543Z,98124.97
2019-03-18T17:32:30.345Z,98124.55
2019-03-18T17:35:03.855Z,98124.45
2019-03-18T17:37:37.405Z,98118.23
2019-03-18T17:40:16.415Z,98119.52
2019-03-18T17:42:49.660Z,98118.33
2019-03-18T17:45:23.826Z,98124.20
2019-03-18T17:47:57.733Z,98110.32
2019-03-18T17:50:32.334Z,98109.36
2019-03-18T17:53:05.941Z,98101.13
2019-03-18T17:55:40.009Z,98099.19
2019-03-18T17:58:13.514Z,98097.46
2019-03-18T18:00:47.261Z,98095.69
2019-03-18T18:03:20.839Z,98092.29
2019-03-18T18:05:54.511Z,98106.00
2019-03-18T18:08:28.100Z,98095.77
2019-03-18T18:11:01.793Z,98091.06
2019-03-18T18:13:35.482Z,98081.80
2019-03-18T18:16:10.846Z,98075.91
2019-03-18T18:18:47.491Z,98081.41
2019-03-18T18:21:21.353Z,98081.41
2019-03-18T18:23:54.897Z,98085.00
2019-03-18T18:26:35.683Z,98078.98
2019-03-18T18:29:09.857Z,98082.78
2019-03-18T18:31:43.583Z,98074.95
2019-03-18T18:34:17.245Z,98079.95
2019-03-18T18:36:52.637Z,98076.62
2019-03-18T18:39:26.426Z,98074.92
2019-03-18T18:41:59.891Z,98069.05
2019-03-18T18:44:33.540Z,98063.81
2019-03-18T18:47:11.117Z,98066.66
2019-03-18T18:49:45.271Z,98069.97
2019-03-18T18:52:18.903Z,98069.25
2019-03-18T18:54:52.536Z,98065.63
2019-03-18T18:57:26.422Z,98064.39
2019-03-18T19:00:00.346Z,98066.81
2019-03-18T19:02:34.033Z,98066.81
2019-03-18T19:05:10.173Z,98066.18
2019-03-18T19:07:43.797Z,98059.09
2019-03-18T19:10:20.826Z,98065.25
2019-03-18T19:12:54.521Z,98068.09
2019-03-18T19:15:41.969Z,98069.05
2019-03-18T19:18:15.604Z,98068.62
2019-03-18T19:20:49.335Z,98059.48
2019-03-18T19:23:23.115Z,98059.05
2019-03-18T19:25:58.842Z,98061.31
2019-03-18T19:28:32.661Z,98062.03
2019-03-18T19:31:06.339Z,98058.75
2019-03-18T19:33:39.821Z,98053.65
2019-03-18T19:36:13.358Z,98044.95
2019-03-18T19:38:46.997Z,98046.94
2019-03-18T19:41:20.546Z,98040.50
2019-03-18T19:43:54.974Z,98041.24
2019-03-18T19:46:28.795Z,98041.01
2019-03-18T19:49:02.580Z,98042.14
2019-03-18T19:51:36.305Z,98041.81
2019-03-18T19:54:12.707Z,98039.20
2019-03-18T19:56:45.067Z,98043.74
2019-03-18T19:59:18.673Z,98042.84
2019-03-18T20:01:52.324Z,98054.98
2019-03-18T20:04:25.882Z,98057.51
2019-03-18T20:07:01.099Z,98059.15
2019-03-18T20:09:34.678Z,98061.12
2019-03-18T20:12:08.294Z,98051.08
2019-03-18T20:14:42.427Z,98056.50
2019-03-18T20:17:16.126Z,98059.96
2019-03-18T20:19:49.853Z,98051.41
2019-03-18T20:22:25.173Z,98047.88
2019-03-18T20:24:58.606Z,98044.44
2019-03-18T20:27:32.410Z,98053.40
2019-03-18T20:30:07.029Z,98044.92
2019-03-18T20:32:40.556Z,98044.17
2019-03-18T20:35:16.050Z,98044.97
2019-03-18T20:37:51.873Z,98044.11
2019-03-18T20:40:25.242Z,98046.08
2019-03-18T20:42:58.963Z,98042.70
2019-03-18T20:45:32.585Z,98046.23
2019-03-18T20:48:06.266Z,98042.42
2019-03-18T20:50:40.101Z,98040.36
2019-03-18T20:53:13.893Z,98039.78
2019-03-18T20:55:47.357Z,98041.40
2019-03-18T20:58:21.186Z,98047.32
2019-03-18T21:00:54.964Z,98044.13
2019-03-18T21:03:28.631Z,98047.70
2019-03-18T21:06:02.338Z,98049.04
2019-03-18T21:08:35.943Z,98053.69
2019-03-18T21:11:09.742Z,98054.74
2019-03-18T21:13:43.687Z,98057.59
2019-03-18T21:16:17.262Z,98061.87
2019-03-18T21:18:51.106Z,98062.63
2019-03-18T21:21:24.840Z,98064.37
2019-03-18T21:23:58.618Z,98057.34
2019-03-18T21:26:32.333Z,98053.79
2019-03-18T21:29:06.235Z,98050.30
2019-03-18T21:31:39.956Z,98054.36
2019-03-18T21:34:14.935Z,98046.47
2019-03-18T21:36:48.577Z,98051.91
2019-03-18T21:39:23.109Z,98047.92
2019-03-18T21:41:58.261Z,98048.73
2019-03-18T21:44:31.790Z,98047.92
2019-03-18T21:47:05.316Z,98046.53
2019-03-18T21:49:38.801Z,98055.29
2019-03-18T21:52:12.903Z,98055.30
2019-03-18T21:54:46.847Z,98056.92
2019-03-18T21:57:22.759Z,98053.73
2019-03-18T21:59:57.564Z,98059.27
2019-03-18T22:02:31.568Z,98058.38
2019-03-18T22:05:06.025Z,98056.17
2019-03-18T22:07:39.776Z,98059.16
2019-03-18T22:10:19.200Z,98058.83
2019-03-18T22:12:53.086Z,98052.58
2019-03-18T22:15:26.773Z,98059.36
2019-03-18T22:18:00.796Z,98061.58
2019-03-18T22:20:34.483Z,98068.70
2019-03-18T22:23:08.072Z,98068.43
2019-03-18T22:25:42.072Z,98078.39
2019-03-18T22:28:15.998Z,98082.14
2019-03-18T22:30:51.151Z,98085.08
2019-03-18T22:33:24.875Z,98082.13
2019-03-18T22:35:59.960Z,98076.11
2019-03-18T22:38:33.962Z,98080.93
2019-03-18T22:41:07.793Z,98083.38
2019-03-18T22:43:41.202Z,98087.16
2019-03-18T22:46:15.141Z,98077.89
2019-03-18T22:48:49.175Z,98084.34
2019-03-18T22:51:23.808Z,98079.43
2019-03-18T22:54:01.735Z,98085.84
2019-03-18T22:56:35.305Z,98080.54
2019-03-18T22:59:09.155Z,98084.74
2019-03-18T23:01:43.254Z,98084.73
2019-03-18T23:04:17.149Z,98086.76
2019-03-18T23:06:52.147Z,98096.44
2019-03-18T23:09:26.112Z,98087.67
2019-03-18T23:11:59.795Z,98087.48
2019-03-18T23:14:33.437Z,98094.17
2019-03-18T23:17:07.289Z,98091.39
2019-03-18T23:19:41.203Z,98090.50
2019-03-18T23:22:18.132Z,98096.80
2019-03-18T23:24:51.954Z,98093.97
2019-03-18T23:27:25.614Z,98087.24
2019-03-18T23:29:59.340Z,98095.16
2019-03-18T23:32:33.173Z,98100.02
2019-03-18T23:35:07.896Z,98103.57
2019-03-18T23:37:41.554Z,98098.25
2019-03-18T23:40:35.201Z,98097.73
2019-03-18T23:43:09.682Z,98100.59
2019-03-18T23:45:43.960Z,98106.97
2019-03-18T23:48:18.004Z,98106.61
2019-03-18T23:50:51.888Z,98109.72
2019-03-18T23:53:25.687Z,98109.02
2019-03-18T23:55:59.976Z,98103.87
2019-03-18T23:58:33.610Z,98096.77
